AirNav   Duncan Aviation - Near you to keep you flying
 
 539 users online  

MN06 Pulkrabek Landing Field Airport
Angus, Minnesota, USA

GOING TO ANGUS?


FAA INFORMATION EFFECTIVE 07 OCTOBER 2021

Location

FAA Identifier: MN06
Lat/Long: 48-02-59.9090N 096-47-01.2360W
48-02.998483N 096-47.020600W
48.0499747,-96.7836767
(estimated)
Elevation: 850 ft. / 259 m (estimated)
Variation: 06E (1985)
From city: 3 miles SW of ANGUS, MN
Time zone: UTC -5 (UTC -6 during Standard Time)
Zip code: 56712

Airport Operations

Airport use: Private use. Permission required prior to landing
Activation date: 11/1959
Control tower: no
ARTCC: MINNEAPOLIS CENTER
FSS: PRINCETON FLIGHT SERVICE STATION
Attendance: 0500-2100
Wind indicator: yes
Segmented circle: no

Airport Communications

UNICOM: 122.8
WX AWOS-3 at CKN (14 nm SE): 126.425 (218-281-3018)
WX ASOS at GFK (17 nm W): PHONE 701-772-3486

Nearby radio navigation aids

VOR radial/distance  VOR name  Freq  Var
GFKr062/17.1GRAND FORKS VOR/DME114.3009E
TVFr259/24.0THIEF RIVER FALLS VOR/DME108.4008E

Airport Services

Fuel available: 100LL
Airframe service: NONE
Powerplant service: NONE

Runway Information

Runway N/S

Dimensions: 2600 x 150 ft. / 792 x 46 m
Surface: turf
RUNWAY N  RUNWAY S
Traffic pattern: leftleft

Airport Ownership and Management from official FAA records

Ownership: Privately-owned
Owner: GARY PULKRABEK
RT 3 BOX 109
ANGUS, MN 56762
Phone 218-745-5891
Manager: GARY PULKRABEK
RT 3 BOX 109
ANGUS, MN 56762
Phone 218-745-5891

Airport Operational Statistics

Aircraft based on the field: 2
Single engine airplanes: 2
    

Additional Remarks

FOR CD CTC MINNEAPOLIS ARTCC AT 651-463-5588.

Instrument Procedures

There are no published instrument procedures at MN06.

Some nearby airports with instrument procedures:

D37 - Warren Municipal Airport (9 nm N)
KCKN - Crookston Municipal Airport Kirkwood Field (14 nm SE)
KGFK - Grand Forks International Airport (17 nm W)
KTVF - Thief River Falls Regional Airport (24 nm E)
KRDR - Grand Forks Air Force Base (25 nm W)
 
Loc | Ops | Rwys | IFR | FBO | Links
Com | Nav | Svcs | Stats | Notes
Area around MN06 (Pulkrabek Landing Field Airport)
 
Road maps at: MapQuest Bing Google
 
Aerial photo
No photo
 
Sectional chart

 
Airport distance calculator
Flying to Pulkrabek Landing Field Airport? Find the distance to fly.

From to MN06

Sunrise and sunset
Times for 28-Oct-2021
 Local
(UTC-5)
 Zulu
(UTC)
Morning civil twilight07:3512:35
Sunrise08:0713:07
Sunset18:1523:15
Evening civil twilight18:4723:47

Current date and time
Zulu (UTC)  28-Oct-2021 05:27:26
Local (UTC-5)  28-Oct-2021 00:27:26
 
METAR
KCKN 
14nm SE 
280515Z AUTO 15006KT 5SM OVC005 07/07 A2973 RMK AO2 PWINO
KGFK 
17nm W 
280522Z AUTO 18003KT 1 3/4SM BR SCT120 07/06 A2972 RMK AO2 TWR VIS 10 T00670061
KTVF 
25nm E 
280456Z AUTO 19005KT 10SM UP OVC005 A2975 RMK AO2 RAE55UPB55 SLPNO P0002 400940072 FZRANO
KRDR 
25nm W 
280456Z 19004KT 10SM OVC110 07/06 A2972 RMK AO2A SLP074 T00700064 VISNO RWY17 $
TAF
KGFK 
17nm W 
280420Z 2804/2824 VRB03KT 6SM BR SCT002 OVC100 TEMPO 2805/2808 3/4SM BR BKN002 FM280800 VRB04KT 3SM BR OVC009 FM281100 32010KT P6SM FEW250 FM281700 32015G22KT P6SM FEW250
NOTAMs
Click for the latest NOTAMs
NOTAMs are issued by the DoD/FAA and will open in a separate window not controlled by AirNav.

 

 
 

Would you like to see your business listed on this page?

 If your business provides an interesting product or service to pilots, flight crews, aircraft, or users of the Pulkrabek Landing Field Airport, you should consider listing it here.  To start the listing process, click on the button below
 
Add a business
 

Other Pages about Pulkrabek Landing Field Airport

Update a link
 
Copyright © AirNav, LLC. All rights reserved. Privacy Policy  Contact